Time;durP1;ratioP1;P1;durP2;ratioP2;P2;SDS_P1;SDS_P2;PMS_P1;PMS_P2;Temp;Humidity;BMP_temperature;BMP_pressure;BME280_temperature;BME280_humidity;BME280_pressure;Samples;Min_cycle;Max_cycle;Signal;HPM_P1;HPM_P2
2023/09/27 00:00:25;;;;;;;14.20;10.07;;;16.20;99.90;;;;;;5018806;28;20131;-89
2023/09/27 00:02:52;;;;;;;18.42;16.52;;;16.10;99.90;;;;;;5018871;28;20049;-89
2023/09/27 00:05:19;;;;;;;17.77;16.00;;;16.10;99.90;;;;;;5036004;28;20041;-89
2023/09/27 00:07:44;;;;;;;15.32;10.93;;;16.10;99.90;;;;;;5035357;28;20041;-88
2023/09/27 00:10:11;;;;;;;18.92;16.92;;;16.00;99.90;;;;;;5035293;28;20029;-90
2023/09/27 00:12:37;;;;;;;20.15;11.73;;;16.00;99.90;;;;;;5034893;28;20033;-88
2023/09/27 00:15:04;;;;;;;17.75;11.88;;;15.90;99.90;;;;;;5035777;28;20120;-89
2023/09/27 00:17:30;;;;;;;21.17;19.27;;;15.90;99.90;;;;;;5018822;28;20127;-89
2023/09/27 00:19:55;;;;;;;21.90;19.95;;;15.90;99.90;;;;;;5035371;28;20032;-89
2023/09/27 00:22:21;;;;;;;21.90;19.70;;;16.00;99.90;;;;;;5035754;28;20041;-89
2023/09/27 00:24:47;;;;;;;18.15;13.02;;;16.00;99.90;;;;;;5018690;28;20119;-88
2023/09/27 00:27:13;;;;;;;20.85;18.83;;;15.90;99.90;;;;;;5018305;28;20056;-89
2023/09/27 00:29:38;;;;;;;20.27;18.38;;;15.90;99.90;;;;;;5034582;28;20170;-88
2023/09/27 00:32:04;;;;;;;21.88;19.63;;;15.90;99.90;;;;;;5035136;28;20129;-89
2023/09/27 00:34:31;;;;;;;20.67;18.73;;;15.90;99.90;;;;;;5034938;28;20037;-88
2023/09/27 00:36:56;;;;;;;25.27;22.67;;;15.90;99.90;;;;;;5035068;28;20619;-89
2023/09/27 00:39:22;;;;;;;23.60;21.38;;;15.90;99.90;;;;;;5018227;28;20048;-89
2023/09/27 00:41:48;;;;;;;17.25;11.27;;;15.90;99.90;;;;;;5018642;28;20403;-89
2023/09/27 00:44:14;;;;;;;23.80;21.40;;;15.80;99.90;;;;;;5018637;28;20049;-88
2023/09/27 00:46:40;;;;;;;24.98;22.35;;;15.80;99.90;;;;;;5034220;28;20049;-89
2023/09/27 00:49:07;;;;;;;23.10;20.90;;;15.80;99.90;;;;;;5018398;28;20052;-88
2023/09/27 00:51:33;;;;;;;20.63;12.75;;;15.80;99.90;;;;;;5018130;28;20037;-88
2023/09/27 00:53:59;;;;;;;23.48;21.20;;;15.70;99.90;;;;;;5034773;28;20168;-88
2023/09/27 00:56:25;;;;;;;23.85;21.65;;;15.70;99.90;;;;;;5018127;28;20036;-88
2023/09/27 00:58:52;;;;;;;19.33;12.57;;;15.80;99.90;;;;;;5017911;28;20059;-88
2023/09/27 01:01:18;;;;;;;26.30;23.85;;;15.70;99.90;;;;;;5034312;28;20044;-89
2023/09/27 01:03:44;;;;;;;19.02;14.40;;;15.70;99.90;;;;;;5018037;28;20037;-88
2023/09/27 01:06:11;;;;;;;26.40;23.80;;;15.70;99.90;;;;;;5017813;28;20195;-89
2023/09/27 01:08:37;;;;;;;23.08;20.85;;;15.70;99.90;;;;;;5017608;28;20476;-89
2023/09/27 01:11:04;;;;;;;25.27;22.88;;;15.70;99.90;;;;;;5017812;28;20516;-88
2023/09/27 01:13:30;;;;;;;22.88;14.25;;;15.80;99.90;;;;;;5034386;28;20251;-88
2023/09/27 01:15:55;;;;;;;25.15;22.58;;;15.70;99.90;;;;;;5017519;28;20579;-89
2023/09/27 01:18:21;;;;;;;18.58;12.00;;;15.70;99.90;;;;;;5017169;28;20041;-89
2023/09/27 01:20:46;;;;;;;19.80;14.95;;;15.70;99.90;;;;;;5017740;28;20099;-89
2023/09/27 01:23:12;;;;;;;22.98;20.88;;;15.60;99.90;;;;;;5034433;28;20049;-88
2023/09/27 01:25:39;;;;;;;24.27;21.90;;;15.60;99.90;;;;;;5017174;28;20411;-89
2023/09/27 01:28:07;;;;;;;25.00;22.70;;;15.60;99.90;;;;;;5033878;28;20045;-89
2023/09/27 01:30:34;;;;;;;19.17;12.48;;;15.60;99.90;;;;;;5033816;28;20036;-89
2023/09/27 01:33:10;;;;;;;22.65;12.07;;;15.60;99.90;;;;;;5034595;28;20127;-89
2023/09/27 01:35:37;;;;;;;18.33;13.43;;;15.40;99.90;;;;;;5034305;28;20120;-89
2023/09/27 01:38:04;;;;;;;25.27;22.67;;;15.40;99.90;;;;;;5017702;28;20083;-88
2023/09/27 01:40:30;;;;;;;25.67;23.38;;;15.50;99.90;;;;;;5034034;28;20092;-88
2023/09/27 01:42:57;;;;;;;20.08;14.10;;;15.50;99.90;;;;;;5017485;28;20037;-88
2023/09/27 01:45:23;;;;;;;25.60;23.25;;;15.40;99.90;;;;;;5033834;28;20040;-88
2023/09/27 01:47:49;;;;;;;25.70;23.40;;;15.40;99.90;;;;;;5033561;28;20040;-88
2023/09/27 01:50:15;;;;;;;19.73;12.35;;;15.50;99.90;;;;;;5033328;28;20087;-89
2023/09/27 01:52:40;;;;;;;24.65;22.25;;;15.40;99.90;;;;;;5017377;28;20124;-88
2023/09/27 01:55:06;;;;;;;25.10;22.70;;;15.40;99.90;;;;;;5017688;28;20072;-88
2023/09/27 01:57:32;;;;;;;16.85;13.15;;;15.40;99.90;;;;;;5033477;28;20033;-89
2023/09/27 01:59:57;;;;;;;17.75;13.57;;;15.30;99.90;;;;;;5017548;28;20095;-88
2023/09/27 02:02:23;;;;;;;18.70;15.18;;;15.20;99.90;;;;;;5017219;28;20047;-88
2023/09/27 02:04:49;;;;;;;27.95;25.30;;;15.10;99.90;;;;;;5033825;28;20037;-88
2023/09/27 02:07:14;;;;;;;29.85;27.10;;;15.20;99.90;;;;;;5017563;28;20557;-89
2023/09/27 02:09:40;;;;;;;28.13;25.60;;;15.30;99.90;;;;;;5032328;28;20029;-87
2023/09/27 02:12:06;;;;;;;29.77;27.08;;;15.30;99.90;;;;;;5015669;28;20045;-88
2023/09/27 02:14:31;;;;;;;24.60;16.80;;;15.30;99.90;;;;;;5016386;28;20037;-88
2023/09/27 02:16:57;;;;;;;29.95;27.15;;;15.20;99.90;;;;;;5014914;28;20126;-89
2023/09/27 02:19:23;;;;;;;29.08;26.38;;;15.20;99.90;;;;;;5031200;28;20448;-88
2023/09/27 02:21:49;;;;;;;21.92;17.00;;;15.30;99.90;;;;;;5017489;28;20041;-88
2023/09/27 02:24:16;;;;;;;22.10;16.75;;;15.20;99.90;;;;;;5017752;28;20135;-88
2023/09/27 02:26:43;;;;;;;29.45;26.65;;;15.20;99.90;;;;;;5018177;28;20080;-88
2023/09/27 02:29:09;;;;;;;20.70;13.57;;;15.20;99.90;;;;;;5018124;28;20103;-88
2023/09/27 02:31:35;;;;;;;29.33;26.60;;;15.20;99.90;;;;;;5045704;28;20044;-88
2023/09/27 02:34:01;;;;;;;22.23;15.70;;;15.20;99.90;;;;;;5041254;28;20116;-88
2023/09/27 02:36:26;;;;;;;18.67;13.68;;;15.10;99.90;;;;;;5019379;28;20037;-89
2023/09/27 02:38:52;;;;;;;29.05;26.45;;;15.00;99.90;;;;;;5036910;28;20041;-88
2023/09/27 02:41:17;;;;;;;29.67;26.88;;;15.10;99.90;;;;;;5036781;28;20089;-88
2023/09/27 02:43:43;;;;;;;30.88;28.17;;;15.10;99.90;;;;;;5020545;28;20037;-89
2023/09/27 02:46:08;;;;;;;23.00;17.92;;;15.20;99.90;;;;;;5037052;28;20041;-88
2023/09/27 02:48:35;;;;;;;20.15;13.55;;;15.10;99.90;;;;;;5036630;28;20033;-88
2023/09/27 02:51:01;;;;;;;31.95;28.98;;;15.10;99.90;;;;;;5036722;28;20488;-88
2023/09/27 02:53:26;;;;;;;23.23;17.17;;;15.10;99.90;;;;;;5020415;28;20083;-89
2023/09/27 02:55:52;;;;;;;32.10;29.10;;;15.10;99.90;;;;;;5020318;28;20086;-88
2023/09/27 02:58:18;;;;;;;28.85;26.27;;;15.10;99.90;;;;;;5036633;28;20044;-89
2023/09/27 03:00:44;;;;;;;30.75;27.95;;;15.20;99.90;;;;;;5020086;28;20090;-88
2023/09/27 03:03:10;;;;;;;32.03;29.13;;;15.20;99.90;;;;;;5037089;28;20427;-89
2023/09/27 03:05:35;;;;;;;17.40;12.60;;;15.20;99.90;;;;;;5020083;28;20037;-88
2023/09/27 03:08:02;;;;;;;19.83;13.77;;;15.10;99.90;;;;;;5054185;28;20037;-88
2023/09/27 03:10:28;;;;;;;22.58;20.50;;;14.90;99.90;;;;;;5036234;28;20083;-88
2023/09/27 03:12:54;;;;;;;24.38;22.02;;;14.90;99.90;;;;;;5036589;28;20069;-88
2023/09/27 03:15:20;;;;;;;18.70;11.68;;;14.90;99.90;;;;;;5019858;28;20084;-88
2023/09/27 03:17:47;;;;;;;20.67;18.67;;;14.70;99.90;;;;;;5036035;28;20048;-89
2023/09/27 03:20:17;;;;;;;17.35;11.60;;;14.70;99.90;;;;;;5036606;28;20044;-89
2023/09/27 03:22:43;;;;;;;20.20;13.20;;;14.60;99.90;;;;;;5036331;28;20045;-88
2023/09/27 03:25:09;;;;;;;26.20;23.65;;;14.50;99.90;;;;;;5019784;28;20132;-88
2023/09/27 03:27:38;;;;;;;17.13;15.43;;;14.50;99.90;;;;;;5019427;28;20041;-88
2023/09/27 03:30:06;;;;;;;29.48;26.98;;;14.50;99.90;;;;;;5035828;28;20036;-88
2023/09/27 03:32:32;;;;;;;23.58;13.60;;;14.60;99.90;;;;;;5036070;28;20037;-89
2023/09/27 03:34:58;;;;;;;20.38;16.10;;;14.50;99.90;;;;;;5019578;28;20083;-89
2023/09/27 03:37:24;;;;;;;31.33;28.60;;;14.40;99.90;;;;;;5035942;28;20051;-89
2023/09/27 03:39:52;;;;;;;22.60;17.50;;;14.50;99.90;;;;;;5036271;28;20116;-88
2023/09/27 03:42:18;;;;;;;33.70;30.63;;;14.50;99.90;;;;;;5019459;28;20583;-89
2023/09/27 03:44:44;;;;;;;32.88;29.88;;;14.50;99.90;;;;;;5036219;28;20033;-89
2023/09/27 03:47:11;;;;;;;32.70;29.75;;;14.60;99.90;;;;;;5018368;28;20423;-88
2023/09/27 03:49:37;;;;;;;25.00;17.45;;;14.60;99.90;;;;;;5035605;28;20039;-89
2023/09/27 03:52:03;;;;;;;23.20;17.98;;;14.50;99.90;;;;;;5035515;28;20035;-88
2023/09/27 03:54:29;;;;;;;32.30;29.35;;;14.50;99.90;;;;;;5035962;28;20029;-88
2023/09/27 03:56:55;;;;;;;24.02;18.20;;;14.60;99.90;;;;;;5019142;28;20462;-88
2023/09/27 03:59:20;;;;;;;33.40;30.25;;;14.50;99.90;;;;;;5035376;28;20061;-88
2023/09/27 04:01:46;;;;;;;25.13;17.75;;;14.60;99.90;;;;;;5018782;28;20064;-88
2023/09/27 04:04:12;;;;;;;36.53;33.25;;;14.50;99.90;;;;;;5035542;28;20086;-88
2023/09/27 04:06:38;;;;;;;23.00;18.65;;;14.60;99.90;;;;;;5018844;28;20032;-89
2023/09/27 04:09:05;;;;;;;36.65;33.45;;;14.60;99.90;;;;;;5035015;28;20403;-89
2023/09/27 04:11:31;;;;;;;35.85;32.58;;;14.60;99.90;;;;;;5035303;28;20056;-89
2023/09/27 04:13:56;;;;;;;35.20;31.98;;;14.70;99.90;;;;;;5019122;28;20125;-89
2023/09/27 04:16:23;;;;;;;33.78;30.73;;;14.70;99.90;;;;;;5018688;28;20040;-88
2023/09/27 04:18:49;;;;;;;37.03;33.70;;;14.70;99.90;;;;;;5018579;28;20043;-88
2023/09/27 04:21:14;;;;;;;29.40;18.33;;;14.70;99.90;;;;;;5035114;28;20124;-88
2023/09/27 04:23:41;;;;;;;34.45;31.35;;;14.60;99.90;;;;;;5018372;28;20079;-88
2023/09/27 04:26:09;;;;;;;23.58;16.02;;;14.60;99.90;;;;;;5018524;28;20041;-88
2023/09/27 04:28:35;;;;;;;22.40;15.55;;;14.50;99.90;;;;;;5018338;28;20044;-89
2023/09/27 04:31:00;;;;;;;20.15;15.25;;;14.50;99.90;;;;;;5035118;28;20045;-88
2023/09/27 04:33:26;;;;;;;21.92;16.55;;;14.40;99.90;;;;;;5018373;28;20102;-89
2023/09/27 04:35:52;;;;;;;22.95;18.98;;;14.40;99.90;;;;;;5034871;28;20412;-89
2023/09/27 04:38:17;;;;;;;26.55;24.25;;;14.40;99.90;;;;;;5018253;28;20045;-89
2023/09/27 04:40:43;;;;;;;24.63;22.42;;;14.40;99.90;;;;;;5018526;28;20075;-89
2023/09/27 04:43:09;;;;;;;15.68;10.65;;;14.40;99.90;;;;;;5034828;28;20128;-88
2023/09/27 04:45:34;;;;;;;17.05;12.30;;;14.20;99.90;;;;;;5034880;28;20448;-89
2023/09/27 04:48:00;;;;;;;20.15;18.25;;;14.20;99.90;;;;;;5034454;28;20527;-89
2023/09/27 04:50:26;;;;;;;14.00;9.18;;;14.10;99.90;;;;;;5034197;28;20174;-89
2023/09/27 04:52:51;;;;;;;15.73;14.23;;;14.00;99.90;;;;;;5018352;28;20400;-88
2023/09/27 04:55:17;;;;;;;21.52;19.63;;;14.10;99.90;;;;;;5018147;28;20033;-88
2023/09/27 04:57:43;;;;;;;12.75;7.80;;;14.00;99.90;;;;;;5018385;28;20122;-88
2023/09/27 05:00:18;;;;;;;17.20;10.52;;;13.90;99.90;;;;;;5018905;28;20488;-89
2023/09/27 05:02:45;;;;;;;15.57;10.10;;;13.80;99.90;;;;;;5040650;28;20048;-88
2023/09/27 05:05:11;;;;;;;23.42;21.25;;;13.80;99.90;;;;;;5045943;28;20071;-89
2023/09/27 05:07:36;;;;;;;17.05;12.82;;;13.80;99.90;;;;;;5017954;28;20073;-88
2023/09/27 05:10:02;;;;;;;30.77;27.88;;;13.80;99.90;;;;;;5017669;28;20520;-88
2023/09/27 05:12:28;;;;;;;18.35;12.25;;;13.80;99.90;;;;;;5017793;28;20086;-88
2023/09/27 05:14:53;;;;;;;22.75;14.32;;;13.80;99.90;;;;;;5034347;28;20041;-88
2023/09/27 05:17:19;;;;;;;18.35;14.15;;;13.80;99.90;;;;;;5033866;28;20052;-88
2023/09/27 05:19:45;;;;;;;18.85;12.73;;;13.80;99.90;;;;;;5017804;28;20044;-89
2023/09/27 05:22:12;;;;;;;28.00;25.35;;;13.70;99.90;;;;;;5017933;28;20566;-89
2023/09/27 05:24:38;;;;;;;15.80;11.43;;;13.80;99.90;;;;;;5034225;28;20119;-88
2023/09/27 05:27:07;;;;;;;20.10;18.27;;;13.80;99.90;;;;;;5017603;28;20041;-89
2023/09/27 05:29:34;;;;;;;23.50;21.40;;;13.80;99.90;;;;;;5033866;28;20561;-88
2023/09/27 05:31:59;;;;;;;16.13;9.77;;;13.80;99.90;;;;;;5017683;28;20097;-89
2023/09/27 05:34:25;;;;;;;17.38;10.02;;;13.80;99.90;;;;;;5034384;28;20037;-88
2023/09/27 05:36:51;;;;;;;14.63;9.45;;;13.70;99.90;;;;;;5034166;28;20029;-88
2023/09/27 05:39:16;;;;;;;30.48;27.67;;;13.70;99.90;;;;;;5017615;28;20036;-89
2023/09/27 05:41:42;;;;;;;29.23;26.73;;;13.70;99.90;;;;;;5017614;28;20103;-89
2023/09/27 05:44:07;;;;;;;24.55;22.15;;;13.80;99.90;;;;;;5034431;28;20120;-88
2023/09/27 05:46:33;;;;;;;18.42;11.82;;;13.90;99.90;;;;;;5033879;28;20479;-88
2023/09/27 05:49:04;;;;;;;27.92;25.42;;;13.80;99.90;;;;;;5017402;28;20401;-88
2023/09/27 05:51:30;;;;;;;28.48;25.77;;;13.90;99.90;;;;;;5017797;28;20041;-88
2023/09/27 05:53:56;;;;;;;32.97;30.00;;;14.00;99.90;;;;;;5017437;28;20037;-89
2023/09/27 05:56:22;;;;;;;34.42;31.42;;;14.00;99.90;;;;;;5033926;28;20037;-89
2023/09/27 05:58:48;;;;;;;21.48;14.10;;;14.00;99.90;;;;;;5017341;28;20040;-88
2023/09/27 06:01:19;;;;;;;36.38;33.17;;;14.00;99.90;;;;;;5033725;28;20484;-88
2023/09/27 06:03:45;;;;;;;22.55;15.68;;;14.00;99.90;;;;;;5017572;28;20037;-88
2023/09/27 06:06:12;;;;;;;20.25;14.55;;;14.00;99.90;;;;;;5033961;28;20041;-88
2023/09/27 06:08:38;;;;;;;21.90;14.98;;;14.00;99.90;;;;;;5033353;28;20564;-88
2023/09/27 06:11:03;;;;;;;22.85;15.50;;;13.90;99.90;;;;;;5035531;28;20112;-89
2023/09/27 06:13:29;;;;;;;24.08;17.35;;;13.90;99.90;;;;;;5037576;28;20404;-88
2023/09/27 06:15:55;;;;;;;34.75;31.50;;;13.90;99.90;;;;;;5037833;28;20063;-89
2023/09/27 06:18:21;;;;;;;35.22;31.98;;;14.00;99.90;;;;;;5037518;28;20416;-88
2023/09/27 06:20:47;;;;;;;25.13;16.95;;;14.10;99.90;;;;;;5037240;28;20036;-88
2023/09/27 06:23:13;;;;;;;23.88;15.20;;;14.10;99.90;;;;;;5037529;28;20069;-89
2023/09/27 06:25:43;;;;;;;23.80;15.40;;;14.10;99.90;;;;;;5021134;28;20045;-88
2023/09/27 06:28:13;;;;;;;22.33;15.85;;;14.00;99.90;;;;;;5037250;28;20423;-88
2023/09/27 06:30:40;;;;;;;35.35;32.10;;;14.00;99.90;;;;;;5026061;28;20086;-89
2023/09/27 06:33:06;;;;;;;26.70;19.60;;;14.10;99.90;;;;;;5037608;28;20103;-89
2023/09/27 06:35:32;;;;;;;24.75;18.10;;;14.20;99.90;;;;;;5035076;28;20124;-89
2023/09/27 06:38:00;;;;;;;37.50;34.38;;;14.20;99.90;;;;;;5018019;28;20171;-89
2023/09/27 06:40:26;;;;;;;36.70;33.50;;;14.20;99.90;;;;;;5017912;28;20041;-89
2023/09/27 06:42:52;;;;;;;24.45;17.83;;;14.30;99.90;;;;;;5036706;28;20037;-88
2023/09/27 06:45:18;;;;;;;26.35;18.70;;;14.30;99.90;;;;;;5055256;28;20040;-89
2023/09/27 06:47:45;;;;;;;40.17;36.63;;;14.30;99.90;;;;;;5020219;28;20132;-89
2023/09/27 06:50:12;;;;;;;27.00;19.92;;;14.40;99.90;;;;;;5037195;28;20396;-89
2023/09/27 06:52:39;;;;;;;26.00;19.85;;;14.30;99.90;;;;;;5020860;28;20492;-88
2023/09/27 06:55:13;;;;;;;25.90;17.42;;;14.40;99.90;;;;;;5021018;28;20029;-89
2023/09/27 06:57:44;;;;;;;42.55;38.80;;;14.40;99.90;;;;;;5019317;28;20175;-89
2023/09/27 07:00:18;;;;;;;41.45;37.92;;;14.40;99.90;;;;;;5036707;28;20526;-89
2023/09/27 07:02:48;;;;;;;39.63;36.03;;;14.50;99.90;;;;;;5020551;28;20090;-89
2023/09/27 07:05:14;;;;;;;26.65;18.60;;;14.60;99.90;;;;;;5013645;28;20042;-89
2023/09/27 07:07:40;;;;;;;25.70;17.23;;;14.60;99.90;;;;;;5019175;28;20408;-89
2023/09/27 07:10:08;;;;;;;42.55;38.85;;;14.60;99.90;;;;;;5036480;28;20557;-89
2023/09/27 07:12:35;;;;;;;29.45;18.67;;;14.70;99.90;;;;;;5020140;28;20044;-89
2023/09/27 07:15:02;;;;;;;44.28;40.30;;;14.70;99.90;;;;;;5020202;28;20560;-89
2023/09/27 07:17:28;;;;;;;30.27;20.63;;;14.80;99.90;;;;;;5020162;28;20045;-89
2023/09/27 07:19:53;;;;;;;44.58;40.70;;;14.90;99.90;;;;;;5020001;28;20052;-89
2023/09/27 07:22:19;;;;;;;44.15;40.13;;;15.00;99.90;;;;;;5018893;28;20036;-89
2023/09/27 07:24:45;;;;;;;30.98;21.30;;;15.10;99.90;;;;;;5037354;28;20122;-90
2023/09/27 07:27:13;;;;;;;45.78;41.78;;;15.10;99.90;;;;;;5020898;28;20448;-89
2023/09/27 07:29:39;;;;;;;48.05;43.95;;;15.20;99.90;;;;;;5026297;28;20476;-89
2023/09/27 07:32:04;;;;;;;29.63;23.13;;;15.30;99.90;;;;;;5035301;28;20035;-89
2023/09/27 07:34:30;;;;;;;45.50;41.47;;;15.30;99.90;;;;;;5040970;28;20119;-89
2023/09/27 07:36:56;;;;;;;30.95;21.27;;;15.30;99.90;;;;;;5036484;28;20516;-89
2023/09/27 07:39:23;;;;;;;26.70;17.95;;;15.30;99.90;;;;;;5039188;28;20116;-89
2023/09/27 07:41:49;;;;;;;44.70;40.85;;;15.30;99.90;;;;;;5050972;28;20067;-89
2023/09/27 07:44:15;;;;;;;44.40;40.25;;;15.40;99.90;;;;;;5038009;28;20044;-88
2023/09/27 07:46:41;;;;;;;45.90;42.00;;;15.40;99.90;;;;;;5037631;28;20041;-89
2023/09/27 07:49:08;;;;;;;25.75;19.83;;;15.60;99.90;;;;;;5020308;28;20051;-90
2023/09/27 07:51:34;;;;;;;29.25;19.02;;;15.50;99.90;;;;;;5037202;28;20052;-89
2023/09/27 07:53:59;;;;;;;44.80;40.70;;;15.50;99.90;;;;;;5036386;28;20025;-90
2023/09/27 07:56:26;;;;;;;45.13;41.10;;;15.60;99.90;;;;;;5022868;28;20037;-89
2023/09/27 07:58:53;;;;;;;46.08;42.08;;;15.70;99.90;;;;;;5042708;28;20044;-90
2023/09/27 08:01:20;;;;;;;45.22;41.35;;;15.70;99.90;;;;;;5037698;28;20055;-89
2023/09/27 08:03:51;;;;;;;31.60;22.45;;;15.80;99.90;;;;;;5047075;28;20051;-90
2023/09/27 08:06:18;;;;;;;43.67;39.78;;;15.70;99.90;;;;;;5023594;28;20519;-89
2023/09/27 08:08:43;;;;;;;29.67;22.20;;;15.80;99.90;;;;;;5035120;28;20090;-89
2023/09/27 08:11:13;;;;;;;45.17;41.28;;;15.80;99.90;;;;;;5032299;28;20037;-89
2023/09/27 08:13:39;;;;;;;45.55;41.63;;;15.90;99.90;;;;;;5018989;28;20043;-90
2023/09/27 08:16:07;;;;;;;37.42;24.67;;;15.90;99.90;;;;;;5035625;28;20445;-89
2023/09/27 08:18:40;;;;;;;44.67;40.67;;;15.90;99.90;;;;;;5034762;28;20037;-88
2023/09/27 08:21:05;;;;;;;44.25;40.20;;;15.90;99.90;;;;;;5019103;28;20047;-88
2023/09/27 08:23:32;;;;;;;32.08;21.00;;;16.00;99.90;;;;;;5019098;28;20041;-88
2023/09/27 08:25:57;;;;;;;30.35;23.38;;;16.10;99.90;;;;;;5018975;28;20040;-87
2023/09/27 08:28:23;;;;;;;31.38;26.38;;;16.10;99.90;;;;;;5034873;28;20066;-89
2023/09/27 08:30:49;;;;;;;46.13;42.20;;;16.20;99.90;;;;;;5035158;28;20033;-88
2023/09/27 08:33:15;;;;;;;31.02;26.15;;;16.30;99.90;;;;;;5034910;28;20039;-88
2023/09/27 08:35:40;;;;;;;32.75;26.60;;;16.40;99.90;;;;;;5035187;28;20413;-88
2023/09/27 08:38:07;;;;;;;44.22;40.40;;;16.40;99.90;;;;;;5037182;28;20045;-87
2023/09/27 08:40:40;;;;;;;41.33;37.70;;;16.50;99.90;;;;;;5024492;28;20077;-88
2023/09/27 08:43:05;;;;;;;35.08;27.38;;;16.70;99.90;;;;;;5035278;28;20418;-88
2023/09/27 08:45:36;;;;;;;44.15;40.38;;;16.80;99.90;;;;;;5052561;28;20504;-89
2023/09/27 08:48:04;;;;;;;43.97;40.08;;;16.90;99.90;;;;;;5052350;28;20043;-89
2023/09/27 08:50:31;;;;;;;43.65;39.90;;;17.00;99.90;;;;;;5034261;28;20500;-88
2023/09/27 08:52:57;;;;;;;43.38;39.55;;;17.10;99.90;;;;;;5034770;28;20571;-89
2023/09/27 08:55:23;;;;;;;44.45;40.55;;;17.20;99.90;;;;;;5034415;28;20127;-89
2023/09/27 08:57:51;;;;;;;30.75;26.50;;;17.30;99.90;;;;;;5017991;28;20129;-89
2023/09/27 09:00:22;;;;;;;44.08;40.28;;;17.30;99.90;;;;;;5014624;28;20042;-90
2023/09/27 09:02:52;;;;;;;42.75;38.85;;;17.50;99.90;;;;;;5034644;28;20040;-89
2023/09/27 09:05:18;;;;;;;41.15;37.67;;;17.60;99.90;;;;;;5018173;28;20512;-89
2023/09/27 09:07:44;;;;;;;40.10;36.58;;;17.70;99.90;;;;;;5034319;28;20446;-89
2023/09/27 09:10:14;;;;;;;40.25;36.67;;;17.80;99.90;;;;;;5034427;28;20510;-89
2023/09/27 09:12:42;;;;;;;29.90;25.27;;;17.90;99.90;;;;;;5034442;28;20071;-90
2023/09/27 09:15:14;;;;;;;35.95;32.58;;;17.90;99.90;;;;;;5017900;28;20457;-89
2023/09/27 09:17:42;;;;;;;;;;;18.00;99.90;;;;;;5018057;28;20066;-89
2023/09/27 09:20:16;;;;;;;38.42;34.83;;;18.10;99.90;;;;;;5034466;28;19917;-90
2023/09/27 09:22:43;;;;;;;38.58;35.15;;;18.20;99.90;;;;;;5017946;28;20128;-89
2023/09/27 09:25:08;;;;;;;40.35;36.75;;;18.30;99.90;;;;;;5018404;28;20048;-89
2023/09/27 09:27:34;;;;;;;35.92;32.83;;;18.50;99.90;;;;;;5033997;28;20041;-90
2023/09/27 09:30:02;;;;;;;27.98;24.13;;;18.60;99.90;;;;;;5018119;28;20114;-90
2023/09/27 09:32:29;;;;;;;36.13;33.08;;;18.60;99.90;;;;;;5034361;28;20125;-90
2023/09/27 09:34:55;;;;;;;39.17;35.70;;;18.70;99.90;;;;;;5018365;28;20128;-90
2023/09/27 09:37:33;;;;;;;38.08;34.58;;;18.80;99.90;;;;;;5034282;28;20077;-90
2023/09/27 09:40:14;;;;;;;36.55;33.33;;;18.80;99.90;;;;;;5017607;28;20041;-90
2023/09/27 09:42:41;;;;;;;36.58;33.38;;;18.90;99.90;;;;;;5034524;28;20067;-90
2023/09/27 09:45:12;;;;;;;36.95;33.72;;;18.90;99.90;;;;;;5033768;28;20033;-90
2023/09/27 09:47:39;;;;;;;37.60;34.20;;;19.00;99.90;;;;;;5034220;28;20040;-90
2023/09/27 09:50:16;;;;;;;36.15;33.03;;;19.10;99.90;;;;;;5017761;28;20097;-90
2023/09/27 09:52:53;;;;;;;37.25;33.95;;;19.10;99.90;;;;;;5034553;28;20045;-90
2023/09/27 09:55:21;;;;;;;36.25;33.03;;;19.20;99.90;;;;;;5018128;28;20036;-91
2023/09/27 09:57:53;;;;;;;36.95;33.75;;;19.20;99.90;;;;;;5033850;28;20079;-90
2023/09/27 10:00:25;;;;;;;34.70;31.70;;;19.20;99.90;;;;;;5034144;28;20036;-90
2023/09/27 10:02:58;;;;;;;36.08;32.78;;;19.20;99.90;;;;;;5010067;28;20048;-90
2023/09/27 10:05:24;;;;;;;34.55;31.48;;;19.30;99.90;;;;;;5044854;28;20045;-90
2023/09/27 10:07:52;;;;;;;36.83;33.40;;;19.40;99.90;;;;;;5028186;28;20041;-90
2023/09/27 10:10:18;;;;;;;35.40;32.47;;;19.40;99.90;;;;;;5017687;28;20048;-90
2023/09/27 10:12:46;;;;;;;33.90;30.92;;;19.50;99.90;;;;;;5034146;28;20082;-90
2023/09/27 10:15:14;;;;;;;34.35;31.38;;;19.60;99.90;;;;;;5033496;28;20048;-89
2023/09/27 10:17:40;;;;;;;33.47;30.48;;;19.80;99.90;;;;;;5030975;28;20045;-89
2023/09/27 10:20:13;;;;;;;32.42;29.30;;;19.90;99.90;;;;;;5014940;28;20045;-89
2023/09/27 10:22:43;;;;;;;30.05;27.27;;;20.10;99.90;;;;;;5014605;28;20098;-89
2023/09/27 10:25:31;;;;;;;28.70;25.85;;;20.20;99.90;;;;;;5031151;28;20051;-90
2023/09/27 10:28:00;;;;;;;28.25;24.58;;;20.30;99.90;;;;;;5040517;28;20444;-90
2023/09/27 10:30:26;;;;;;;27.83;25.27;;;20.30;99.90;;;;;;5016141;28;20474;-89
2023/09/27 10:33:17;;;;;;;26.02;23.48;;;20.40;99.90;;;;;;5017381;28;20043;-90
2023/09/27 10:36:50;;;;;;;28.83;25.92;;;20.40;99.90;;;;;;5018090;28;20130;-90
2023/09/27 10:39:15;;;;;;;28.08;25.25;;;20.50;99.90;;;;;;5013615;28;20041;-90
2023/09/27 10:41:48;;;;;;;28.20;25.50;;;20.60;99.90;;;;;;5009480;28;20390;-89
2023/09/27 10:44:28;;;;;;;30.35;25.92;;;20.70;99.90;;;;;;4993550;28;20041;-91
2023/09/27 10:46:54;;;;;;;25.48;23.15;;;20.80;99.90;;;;;;4977145;28;20049;-90
2023/09/27 10:49:27;;;;;;;24.88;22.30;;;20.80;99.90;;;;;;4989567;28;20137;-89
2023/09/27 10:51:54;;;;;;;23.48;21.08;;;20.90;99.90;;;;;;5009519;28;20344;-89
2023/09/27 10:54:24;;;;;;;24.80;22.40;;;21.00;99.90;;;;;;4993113;28;20038;-90
2023/09/27 10:56:53;;;;;;;24.25;21.95;;;21.10;99.90;;;;;;5002575;28;20108;-90
2023/09/27 10:59:25;;;;;;;24.02;21.73;;;21.30;99.90;;;;;;4995738;28;20567;-90
2023/09/27 11:01:51;;;;;;;22.30;20.08;;;21.40;99.90;;;;;;4996508;28;20049;-90
2023/09/27 11:04:21;;;;;;;21.95;19.73;;;21.40;99.90;;;;;;4996789;28;20044;-90
2023/09/27 11:06:46;;;;;;;22.15;19.73;;;21.50;99.90;;;;;;4996609;28;20480;-90
2023/09/27 11:09:12;;;;;;;21.58;19.40;;;21.60;99.90;;;;;;5012256;28;20081;-90
2023/09/27 11:11:42;;;;;;;22.83;20.45;;;21.60;99.90;;;;;;4996000;28;20465;-89
2023/09/27 11:14:08;;;;;;;21.25;19.10;;;21.70;99.90;;;;;;4996599;28;20042;-90
2023/09/27 11:16:33;;;;;;;22.15;19.88;;;21.70;99.90;;;;;;5011171;28;20141;-90
2023/09/27 11:18:59;;;;;;;22.90;20.55;;;21.80;99.90;;;;;;5019677;28;20041;-90
2023/09/27 11:21:25;;;;;;;21.08;18.95;;;21.80;99.90;;;;;;5036415;28;20041;-90
2023/09/27 11:24:00;;;;;;;22.17;20.02;;;21.90;99.90;;;;;;5036997;28;20048;-89
2023/09/27 11:26:28;;;;;;;23.20;20.88;;;22.00;99.90;;;;;;5036625;28;20118;-90
2023/09/27 11:29:05;;;;;;;22.25;19.95;;;22.10;99.90;;;;;;5019732;28;20465;-89
2023/09/27 11:31:33;;;;;;;20.65;18.70;;;22.10;99.90;;;;;;5036610;28;20033;-90
2023/09/27 11:34:11;;;;;;;19.77;17.70;;;22.10;99.90;;;;;;5036575;28;20041;-90
2023/09/27 11:36:44;;;;;;;19.92;17.95;;;22.10;99.90;;;;;;5019673;28;20036;-90
2023/09/27 11:39:10;;;;;;;21.42;16.25;;;22.20;99.90;;;;;;5019831;28;20040;-90
2023/09/27 11:41:36;;;;;;;18.23;16.25;;;22.20;99.90;;;;;;5036259;28;20068;-89
2023/09/27 11:44:19;;;;;;;17.00;14.38;;;22.30;99.90;;;;;;5031478;28;20492;-89
2023/09/27 11:46:45;;;;;;;;;;;22.30;99.90;;;;;;5033616;28;20359;-89
2023/09/27 11:49:10;;;;;;;18.73;12.93;;;22.40;99.90;;;;;;5016345;28;19929;-89
2023/09/27 11:51:37;;;;;;;14.27;11.80;;;22.50;99.90;;;;;;5016875;28;20124;-90
2023/09/27 11:54:04;;;;;;;13.52;9.85;;;22.60;99.90;;;;;;5017052;28;20048;-91
2023/09/27 11:56:30;;;;;;;11.88;8.88;;;22.70;99.90;;;;;;5016968;28;20029;-90
2023/09/27 11:58:56;;;;;;;13.00;10.20;;;22.80;99.90;;;;;;5034337;28;20043;-90
2023/09/27 12:01:21;;;;;;;13.93;9.35;;;22.80;99.90;;;;;;5035920;28;20041;-90
2023/09/27 12:03:47;;;;;;;13.68;9.07;;;22.80;99.90;;;;;;5035885;28;20041;-90
2023/09/27 12:06:13;;;;;;;12.80;8.00;;;22.80;99.90;;;;;;5019779;28;20041;-90
2023/09/27 12:08:38;;;;;;;11.32;7.47;;;22.80;99.90;;;;;;5018294;28;20037;-90
2023/09/27 12:11:04;;;;;;;11.57;8.02;;;22.70;99.90;;;;;;5019315;28;20094;-90
2023/09/27 12:13:30;;;;;;;10.90;7.30;;;22.70;99.90;;;;;;5035630;28;20124;-90
2023/09/27 12:15:55;;;;;;;11.73;7.38;;;22.70;99.90;;;;;;5019332;28;20044;-90
2023/09/27 12:18:22;;;;;;;11.85;7.20;;;22.70;99.90;;;;;;5018526;28;20052;-90
2023/09/27 12:20:48;;;;;;;11.45;7.30;;;22.70;99.90;;;;;;5035579;28;20041;-90
2023/09/27 12:23:13;;;;;;;11.73;6.50;;;22.70;99.90;;;;;;5019296;28;20044;-90
2023/09/27 12:25:39;;;;;;;12.52;6.75;;;22.70;99.90;;;;;;5018102;28;20408;-90
2023/09/27 12:28:05;;;;;;;12.60;9.30;;;22.80;99.90;;;;;;5018998;28;20123;-90